sensor_id;sensor_type;location;lat;lon;timestamp;P1;durP1;ratioP1;P2;durP2;ratioP2
69847;SDS011;57143;55.940;37.496;2023-10-31T00:01:07;8.07;;;3.30;;
69847;SDS011;57143;55.940;37.496;2023-10-31T00:03:34;7.93;;;3.20;;
69847;SDS011;57143;55.940;37.496;2023-10-31T00:06:01;7.80;;;3.25;;
69847;SDS011;57143;55.940;37.496;2023-10-31T00:08:30;7.93;;;2.90;;
69847;SDS011;57143;55.940;37.496;2023-10-31T00:10:57;7.68;;;3.28;;
69847;SDS011;57143;55.940;37.496;2023-10-31T00:13:25;8.15;;;3.63;;
69847;SDS011;57143;55.940;37.496;2023-10-31T00:15:52;7.90;;;3.30;;
69847;SDS011;57143;55.940;37.496;2023-10-31T00:18:19;9.98;;;3.53;;
69847;SDS011;57143;55.940;37.496;2023-10-31T00:20:46;7.70;;;3.20;;
69847;SDS011;57143;55.940;37.496;2023-10-31T00:23:14;7.85;;;3.05;;
69847;SDS011;57143;55.940;37.496;2023-10-31T00:25:43;7.68;;;3.40;;
69847;SDS011;57143;55.940;37.496;2023-10-31T00:28:10;8.55;;;3.13;;
69847;SDS011;57143;55.940;37.496;2023-10-31T00:30:37;7.63;;;3.05;;
69847;SDS011;57143;55.940;37.496;2023-10-31T00:33:05;7.53;;;2.70;;
69847;SDS011;57143;55.940;37.496;2023-10-31T00:35:32;6.97;;;2.50;;
69847;SDS011;57143;55.940;37.496;2023-10-31T00:37:59;8.57;;;3.40;;
69847;SDS011;57143;55.940;37.496;2023-10-31T00:40:26;6.80;;;2.90;;
69847;SDS011;57143;55.940;37.496;2023-10-31T00:42:55;8.93;;;2.75;;
69847;SDS011;57143;55.940;37.496;2023-10-31T00:45:23;7.17;;;3.10;;
69847;SDS011;57143;55.940;37.496;2023-10-31T00:47:50;7.43;;;3.33;;
69847;SDS011;57143;55.940;37.496;2023-10-31T00:50:18;7.15;;;2.90;;
69847;SDS011;57143;55.940;37.496;2023-10-31T00:52:45;7.70;;;2.65;;
69847;SDS011;57143;55.940;37.496;2023-10-31T00:55:12;6.75;;;2.67;;
69847;SDS011;57143;55.940;37.496;2023-10-31T00:57:39;6.37;;;2.77;;
69847;SDS011;57143;55.940;37.496;2023-10-31T01:00:08;7.03;;;2.70;;
69847;SDS011;57143;55.940;37.496;2023-10-31T01:02:36;8.57;;;3.47;;
69847;SDS011;57143;55.940;37.496;2023-10-31T01:05:03;9.07;;;3.47;;
69847;SDS011;57143;55.940;37.496;2023-10-31T01:07:31;8.15;;;2.90;;
69847;SDS011;57143;55.940;37.496;2023-10-31T01:09:58;7.00;;;2.60;;
69847;SDS011;57143;55.940;37.496;2023-10-31T01:12:25;5.93;;;2.45;;
69847;SDS011;57143;55.940;37.496;2023-10-31T01:14:53;7.00;;;3.00;;
69847;SDS011;57143;55.940;37.496;2023-10-31T01:17:22;7.75;;;2.95;;
69847;SDS011;57143;55.940;37.496;2023-10-31T01:19:49;8.55;;;2.80;;
69847;SDS011;57143;55.940;37.496;2023-10-31T01:22:17;7.17;;;2.93;;
69847;SDS011;57143;55.940;37.496;2023-10-31T01:24:47;8.60;;;3.40;;
69847;SDS011;57143;55.940;37.496;2023-10-31T01:27:14;6.82;;;2.97;;
69847;SDS011;57143;55.940;37.496;2023-10-31T01:29:41;7.07;;;2.55;;
69847;SDS011;57143;55.940;37.496;2023-10-31T01:32:09;7.65;;;2.38;;
69847;SDS011;57143;55.940;37.496;2023-10-31T01:34:37;8.13;;;2.90;;
69847;SDS011;57143;55.940;37.496;2023-10-31T01:37:05;8.05;;;2.78;;
69847;SDS011;57143;55.940;37.496;2023-10-31T01:39:32;7.30;;;2.47;;
69847;SDS011;57143;55.940;37.496;2023-10-31T01:41:59;6.65;;;2.63;;
69847;SDS011;57143;55.940;37.496;2023-10-31T01:44:27;6.80;;;2.78;;
69847;SDS011;57143;55.940;37.496;2023-10-31T01:46:54;8.33;;;2.60;;
69847;SDS011;57143;55.940;37.496;2023-10-31T01:49:22;7.18;;;2.65;;
69847;SDS011;57143;55.940;37.496;2023-10-31T01:51:51;7.82;;;2.60;;
69847;SDS011;57143;55.940;37.496;2023-10-31T01:54:18;6.90;;;2.53;;
69847;SDS011;57143;55.940;37.496;2023-10-31T01:56:45;6.70;;;2.85;;
69847;SDS011;57143;55.940;37.496;2023-10-31T01:59:16;9.47;;;2.97;;
69847;SDS011;57143;55.940;37.496;2023-10-31T02:01:43;7.25;;;2.58;;
69847;SDS011;57143;55.940;37.496;2023-10-31T02:04:10;6.38;;;3.00;;
69847;SDS011;57143;55.940;37.496;2023-10-31T02:06:38;6.43;;;2.80;;
69847;SDS011;57143;55.940;37.496;2023-10-31T02:09:06;7.57;;;3.30;;
69847;SDS011;57143;55.940;37.496;2023-10-31T02:11:34;7.00;;;2.53;;
69847;SDS011;57143;55.940;37.496;2023-10-31T02:14:01;7.28;;;2.55;;
69847;SDS011;57143;55.940;37.496;2023-10-31T02:16:29;8.80;;;2.90;;
69847;SDS011;57143;55.940;37.496;2023-10-31T02:18:56;8.18;;;2.58;;
69847;SDS011;57143;55.940;37.496;2023-10-31T02:21:23;6.55;;;2.25;;
69847;SDS011;57143;55.940;37.496;2023-10-31T02:23:58;6.50;;;2.63;;
69847;SDS011;57143;55.940;37.496;2023-10-31T02:26:28;8.13;;;2.65;;
69847;SDS011;57143;55.940;37.496;2023-10-31T02:28:56;7.57;;;2.90;;
69847;SDS011;57143;55.940;37.496;2023-10-31T02:31:23;8.45;;;2.83;;
69847;SDS011;57143;55.940;37.496;2023-10-31T02:33:51;7.80;;;2.53;;
69847;SDS011;57143;55.940;37.496;2023-10-31T02:36:18;6.50;;;2.57;;
69847;SDS011;57143;55.940;37.496;2023-10-31T02:38:46;7.90;;;2.70;;
69847;SDS011;57143;55.940;37.496;2023-10-31T02:41:18;6.80;;;2.75;;
69847;SDS011;57143;55.940;37.496;2023-10-31T02:43:45;6.80;;;2.88;;
69847;SDS011;57143;55.940;37.496;2023-10-31T02:46:12;7.40;;;2.53;;
69847;SDS011;57143;55.940;37.496;2023-10-31T02:48:40;9.10;;;3.00;;
69847;SDS011;57143;55.940;37.496;2023-10-31T02:51:08;9.35;;;3.05;;
69847;SDS011;57143;55.940;37.496;2023-10-31T02:53:35;5.80;;;2.50;;
69847;SDS011;57143;55.940;37.496;2023-10-31T02:56:03;6.78;;;3.08;;
69847;SDS011;57143;55.940;37.496;2023-10-31T02:58:32;8.38;;;3.25;;
69847;SDS011;57143;55.940;37.496;2023-10-31T03:00:59;6.87;;;2.43;;
69847;SDS011;57143;55.940;37.496;2023-10-31T03:03:26;6.88;;;3.00;;
69847;SDS011;57143;55.940;37.496;2023-10-31T03:05:53;6.90;;;2.92;;
69847;SDS011;57143;55.940;37.496;2023-10-31T03:08:21;9.10;;;3.38;;
69847;SDS011;57143;55.940;37.496;2023-10-31T03:10:48;10.27;;;3.33;;
69847;SDS011;57143;55.940;37.496;2023-10-31T03:13:17;6.63;;;2.47;;
69847;SDS011;57143;55.940;37.496;2023-10-31T03:15:46;7.28;;;3.13;;
69847;SDS011;57143;55.940;37.496;2023-10-31T03:18:14;7.20;;;2.65;;
69847;SDS011;57143;55.940;37.496;2023-10-31T03:20:43;7.35;;;2.65;;
69847;SDS011;57143;55.940;37.496;2023-10-31T03:23:11;7.97;;;2.33;;
69847;SDS011;57143;55.940;37.496;2023-10-31T03:25:38;6.83;;;2.50;;
69847;SDS011;57143;55.940;37.496;2023-10-31T03:28:07;8.35;;;3.03;;
69847;SDS011;57143;55.940;37.496;2023-10-31T03:30:47;8.45;;;2.80;;
69847;SDS011;57143;55.940;37.496;2023-10-31T03:33:14;6.70;;;2.53;;
69847;SDS011;57143;55.940;37.496;2023-10-31T03:35:42;6.85;;;2.60;;
69847;SDS011;57143;55.940;37.496;2023-10-31T03:38:09;7.70;;;3.17;;
69847;SDS011;57143;55.940;37.496;2023-10-31T03:40:37;10.77;;;2.92;;
69847;SDS011;57143;55.940;37.496;2023-10-31T03:43:04;7.00;;;3.42;;
69847;SDS011;57143;55.940;37.496;2023-10-31T03:45:31;6.45;;;2.90;;
69847;SDS011;57143;55.940;37.496;2023-10-31T03:48:00;7.20;;;3.03;;
69847;SDS011;57143;55.940;37.496;2023-10-31T03:50:27;7.43;;;3.03;;
69847;SDS011;57143;55.940;37.496;2023-10-31T03:52:54;7.85;;;2.70;;
69847;SDS011;57143;55.940;37.496;2023-10-31T03:55:22;7.82;;;3.35;;
69847;SDS011;57143;55.940;37.496;2023-10-31T03:57:49;7.65;;;2.97;;
69847;SDS011;57143;55.940;37.496;2023-10-31T04:00:16;6.68;;;2.97;;
69847;SDS011;57143;55.940;37.496;2023-10-31T04:02:44;7.43;;;3.33;;
69847;SDS011;57143;55.940;37.496;2023-10-31T04:05:12;7.80;;;3.33;;
69847;SDS011;57143;55.940;37.496;2023-10-31T04:07:39;7.47;;;3.55;;
69847;SDS011;57143;55.940;37.496;2023-10-31T04:10:07;7.47;;;3.30;;
69847;SDS011;57143;55.940;37.496;2023-10-31T04:12:35;9.55;;;3.55;;
69847;SDS011;57143;55.940;37.496;2023-10-31T04:15:02;9.10;;;3.40;;
69847;SDS011;57143;55.940;37.496;2023-10-31T04:17:30;8.77;;;4.30;;
69847;SDS011;57143;55.940;37.496;2023-10-31T04:19:58;10.23;;;4.10;;
69847;SDS011;57143;55.940;37.496;2023-10-31T04:22:26;10.35;;;4.32;;
69847;SDS011;57143;55.940;37.496;2023-10-31T04:24:53;9.77;;;4.03;;
69847;SDS011;57143;55.940;37.496;2023-10-31T04:27:21;8.77;;;4.10;;
69847;SDS011;57143;55.940;37.496;2023-10-31T04:29:48;9.95;;;4.18;;
69847;SDS011;57143;55.940;37.496;2023-10-31T04:32:15;9.15;;;3.88;;
69847;SDS011;57143;55.940;37.496;2023-10-31T04:34:43;9.80;;;4.40;;
69847;SDS011;57143;55.940;37.496;2023-10-31T04:37:10;9.00;;;3.83;;
69847;SDS011;57143;55.940;37.496;2023-10-31T04:39:39;8.50;;;3.83;;
69847;SDS011;57143;55.940;37.496;2023-10-31T04:42:06;10.02;;;3.67;;
69847;SDS011;57143;55.940;37.496;2023-10-31T04:44:33;7.82;;;3.58;;
69847;SDS011;57143;55.940;37.496;2023-10-31T04:47:01;9.85;;;3.75;;
69847;SDS011;57143;55.940;37.496;2023-10-31T04:49:28;8.00;;;3.25;;
69847;SDS011;57143;55.940;37.496;2023-10-31T04:51:55;8.63;;;3.80;;
69847;SDS011;57143;55.940;37.496;2023-10-31T04:54:22;7.45;;;3.53;;
69847;SDS011;57143;55.940;37.496;2023-10-31T04:56:51;8.88;;;4.50;;
69847;SDS011;57143;55.940;37.496;2023-10-31T04:59:18;10.57;;;5.65;;
69847;SDS011;57143;55.940;37.496;2023-10-31T05:01:48;11.50;;;5.10;;
69847;SDS011;57143;55.940;37.496;2023-10-31T05:04:16;9.20;;;4.63;;
69847;SDS011;57143;55.940;37.496;2023-10-31T05:06:43;11.43;;;5.70;;
69847;SDS011;57143;55.940;37.496;2023-10-31T05:09:11;11.48;;;5.40;;
69847;SDS011;57143;55.940;37.496;2023-10-31T05:11:40;11.68;;;4.88;;
69847;SDS011;57143;55.940;37.496;2023-10-31T05:14:09;10.52;;;5.35;;
69847;SDS011;57143;55.940;37.496;2023-10-31T05:16:40;10.70;;;5.50;;
69847;SDS011;57143;55.940;37.496;2023-10-31T05:19:07;13.63;;;5.78;;
69847;SDS011;57143;55.940;37.496;2023-10-31T05:21:35;10.88;;;5.60;;
69847;SDS011;57143;55.940;37.496;2023-10-31T05:24:03;12.07;;;5.38;;
69847;SDS011;57143;55.940;37.496;2023-10-31T05:26:31;12.20;;;5.30;;
69847;SDS011;57143;55.940;37.496;2023-10-31T05:28:58;10.00;;;5.30;;
69847;SDS011;57143;55.940;37.496;2023-10-31T05:31:27;14.32;;;5.43;;
69847;SDS011;57143;55.940;37.496;2023-10-31T05:33:54;11.55;;;6.88;;
69847;SDS011;57143;55.940;37.496;2023-10-31T05:36:21;11.43;;;6.00;;
69847;SDS011;57143;55.940;37.496;2023-10-31T05:38:49;11.98;;;5.80;;
69847;SDS011;57143;55.940;37.496;2023-10-31T05:41:17;14.73;;;7.87;;
69847;SDS011;57143;55.940;37.496;2023-10-31T05:43:44;13.85;;;6.85;;
69847;SDS011;57143;55.940;37.496;2023-10-31T05:46:11;15.45;;;8.73;;
69847;SDS011;57143;55.940;37.496;2023-10-31T05:48:42;15.80;;;9.38;;
69847;SDS011;57143;55.940;37.496;2023-10-31T05:51:11;16.42;;;8.95;;
69847;SDS011;57143;55.940;37.496;2023-10-31T05:53:40;15.87;;;8.83;;
69847;SDS011;57143;55.940;37.496;2023-10-31T05:56:08;15.45;;;8.98;;
69847;SDS011;57143;55.940;37.496;2023-10-31T05:58:37;17.40;;;9.10;;
69847;SDS011;57143;55.940;37.496;2023-10-31T06:01:06;17.67;;;8.48;;
69847;SDS011;57143;55.940;37.496;2023-10-31T06:03:33;16.73;;;8.30;;
69847;SDS011;57143;55.940;37.496;2023-10-31T06:06:03;16.50;;;9.30;;
69847;SDS011;57143;55.940;37.496;2023-10-31T06:08:30;19.60;;;8.88;;
69847;SDS011;57143;55.940;37.496;2023-10-31T06:10:58;16.30;;;7.45;;
69847;SDS011;57143;55.940;37.496;2023-10-31T06:13:26;11.50;;;6.75;;
69847;SDS011;57143;55.940;37.496;2023-10-31T06:15:53;14.90;;;6.50;;
69847;SDS011;57143;55.940;37.496;2023-10-31T06:18:21;11.97;;;6.37;;
69847;SDS011;57143;55.940;37.496;2023-10-31T06:20:48;10.27;;;5.70;;
69847;SDS011;57143;55.940;37.496;2023-10-31T06:23:17;10.55;;;5.50;;
69847;SDS011;57143;55.940;37.496;2023-10-31T06:25:45;11.88;;;4.93;;
69847;SDS011;57143;55.940;37.496;2023-10-31T06:28:12;10.10;;;5.18;;
69847;SDS011;57143;55.940;37.496;2023-10-31T06:30:40;9.83;;;4.83;;
69847;SDS011;57143;55.940;37.496;2023-10-31T06:33:07;11.23;;;5.35;;
69847;SDS011;57143;55.940;37.496;2023-10-31T06:35:35;9.60;;;5.15;;
69847;SDS011;57143;55.940;37.496;2023-10-31T06:38:03;10.00;;;4.45;;
69847;SDS011;57143;55.940;37.496;2023-10-31T06:40:31;10.20;;;4.57;;
69847;SDS011;57143;55.940;37.496;2023-10-31T06:42:59;10.23;;;4.33;;
69847;SDS011;57143;55.940;37.496;2023-10-31T06:45:26;12.10;;;4.72;;
69847;SDS011;57143;55.940;37.496;2023-10-31T06:47:53;12.65;;;4.88;;
69847;SDS011;57143;55.940;37.496;2023-10-31T06:50:21;11.20;;;4.50;;
69847;SDS011;57143;55.940;37.496;2023-10-31T06:52:48;14.15;;;5.38;;
69847;SDS011;57143;55.940;37.496;2023-10-31T06:55:16;11.67;;;4.70;;
69847;SDS011;57143;55.940;37.496;2023-10-31T06:57:45;10.13;;;5.10;;
69847;SDS011;57143;55.940;37.496;2023-10-31T07:00:12;9.57;;;4.68;;
69847;SDS011;57143;55.940;37.496;2023-10-31T07:02:40;9.93;;;4.80;;
69847;SDS011;57143;55.940;37.496;2023-10-31T07:05:07;10.50;;;4.60;;
69847;SDS011;57143;55.940;37.496;2023-10-31T07:07:35;11.43;;;4.83;;
69847;SDS011;57143;55.940;37.496;2023-10-31T07:10:03;9.65;;;4.65;;
69847;SDS011;57143;55.940;37.496;2023-10-31T07:12:31;12.00;;;4.90;;
69847;SDS011;57143;55.940;37.496;2023-10-31T07:15:00;10.15;;;4.72;;
69847;SDS011;57143;55.940;37.496;2023-10-31T07:17:30;10.35;;;5.25;;
69847;SDS011;57143;55.940;37.496;2023-10-31T07:19:58;9.43;;;4.50;;
69847;SDS011;57143;55.940;37.496;2023-10-31T07:22:25;10.23;;;5.15;;
69847;SDS011;57143;55.940;37.496;2023-10-31T07:24:52;11.13;;;5.10;;
69847;SDS011;57143;55.940;37.496;2023-10-31T07:27:20;10.63;;;5.45;;
69847;SDS011;57143;55.940;37.496;2023-10-31T07:29:47;12.23;;;5.72;;
69847;SDS011;57143;55.940;37.496;2023-10-31T07:32:16;11.50;;;6.00;;
69847;SDS011;57143;55.940;37.496;2023-10-31T07:34:43;17.02;;;5.57;;
69847;SDS011;57143;55.940;37.496;2023-10-31T07:37:11;11.07;;;5.28;;
69847;SDS011;57143;55.940;37.496;2023-10-31T07:39:38;12.20;;;5.95;;
69847;SDS011;57143;55.940;37.496;2023-10-31T07:42:05;11.77;;;6.10;;
69847;SDS011;57143;55.940;37.496;2023-10-31T07:44:33;13.33;;;5.87;;
69847;SDS011;57143;55.940;37.496;2023-10-31T07:47:00;12.15;;;5.65;;
69847;SDS011;57143;55.940;37.496;2023-10-31T07:49:29;11.55;;;6.03;;
69847;SDS011;57143;55.940;37.496;2023-10-31T07:51:56;12.45;;;5.50;;
69847;SDS011;57143;55.940;37.496;2023-10-31T07:54:23;11.23;;;6.22;;
69847;SDS011;57143;55.940;37.496;2023-10-31T07:56:51;12.07;;;6.10;;
69847;SDS011;57143;55.940;37.496;2023-10-31T07:59:20;11.18;;;6.13;;
69847;SDS011;57143;55.940;37.496;2023-10-31T08:01:47;10.88;;;5.70;;
69847;SDS011;57143;55.940;37.496;2023-10-31T08:04:17;13.10;;;5.78;;
69847;SDS011;57143;55.940;37.496;2023-10-31T08:06:46;10.65;;;5.40;;
69847;SDS011;57143;55.940;37.496;2023-10-31T08:09:13;11.13;;;4.97;;
69847;SDS011;57143;55.940;37.496;2023-10-31T08:11:41;11.20;;;5.30;;
69847;SDS011;57143;55.940;37.496;2023-10-31T08:14:09;11.93;;;5.32;;
69847;SDS011;57143;55.940;37.496;2023-10-31T08:16:36;13.50;;;6.13;;
69847;SDS011;57143;55.940;37.496;2023-10-31T08:19:04;10.70;;;5.30;;
69847;SDS011;57143;55.940;37.496;2023-10-31T08:21:31;12.70;;;5.00;;
69847;SDS011;57143;55.940;37.496;2023-10-31T08:24:02;12.80;;;5.32;;
69847;SDS011;57143;55.940;37.496;2023-10-31T08:26:30;11.50;;;5.63;;
69847;SDS011;57143;55.940;37.496;2023-10-31T08:28:57;11.88;;;5.50;;
69847;SDS011;57143;55.940;37.496;2023-10-31T08:31:25;10.23;;;4.97;;
69847;SDS011;57143;55.940;37.496;2023-10-31T08:33:52;12.43;;;5.10;;
69847;SDS011;57143;55.940;37.496;2023-10-31T08:36:19;13.27;;;4.72;;
69847;SDS011;57143;55.940;37.496;2023-10-31T08:38:47;11.70;;;5.00;;
69847;SDS011;57143;55.940;37.496;2023-10-31T08:41:16;12.90;;;4.47;;
69847;SDS011;57143;55.940;37.496;2023-10-31T08:43:45;10.90;;;4.80;;
69847;SDS011;57143;55.940;37.496;2023-10-31T08:46:13;10.20;;;4.33;;
69847;SDS011;57143;55.940;37.496;2023-10-31T08:48:40;8.70;;;4.40;;
69847;SDS011;57143;55.940;37.496;2023-10-31T08:51:07;8.68;;;4.18;;
69847;SDS011;57143;55.940;37.496;2023-10-31T08:53:34;11.05;;;4.00;;
69847;SDS011;57143;55.940;37.496;2023-10-31T08:56:02;9.82;;;3.80;;
69847;SDS011;57143;55.940;37.496;2023-10-31T08:58:31;8.47;;;3.63;;
69847;SDS011;57143;55.940;37.496;2023-10-31T09:00:58;7.78;;;3.70;;
69847;SDS011;57143;55.940;37.496;2023-10-31T09:03:26;7.70;;;3.60;;
69847;SDS011;57143;55.940;37.496;2023-10-31T09:05:53;7.78;;;3.70;;
69847;SDS011;57143;55.940;37.496;2023-10-31T09:08:20;7.45;;;3.67;;
69847;SDS011;57143;55.940;37.496;2023-10-31T09:10:47;9.10;;;4.37;;
69847;SDS011;57143;55.940;37.496;2023-10-31T09:13:14;8.60;;;4.13;;
69847;SDS011;57143;55.940;37.496;2023-10-31T09:15:43;9.65;;;4.20;;
69847;SDS011;57143;55.940;37.496;2023-10-31T09:18:11;7.63;;;3.67;;
69847;SDS011;57143;55.940;37.496;2023-10-31T09:20:38;7.57;;;3.53;;
69847;SDS011;57143;55.940;37.496;2023-10-31T09:23:05;7.20;;;3.43;;
69847;SDS011;57143;55.940;37.496;2023-10-31T09:25:33;8.13;;;3.92;;
69847;SDS011;57143;55.940;37.496;2023-10-31T09:28:00;10.63;;;3.88;;
69847;SDS011;57143;55.940;37.496;2023-10-31T09:30:27;8.63;;;3.30;;
69847;SDS011;57143;55.940;37.496;2023-10-31T09:32:56;9.60;;;4.13;;
69847;SDS011;57143;55.940;37.496;2023-10-31T09:35:24;8.47;;;3.20;;
69847;SDS011;57143;55.940;37.496;2023-10-31T09:37:51;8.50;;;3.50;;
69847;SDS011;57143;55.940;37.496;2023-10-31T09:40:19;9.05;;;4.05;;
69847;SDS011;57143;55.940;37.496;2023-10-31T09:42:47;7.78;;;3.67;;
69847;SDS011;57143;55.940;37.496;2023-10-31T09:45:15;9.27;;;4.07;;
69847;SDS011;57143;55.940;37.496;2023-10-31T09:47:43;7.77;;;3.57;;
69847;SDS011;57143;55.940;37.496;2023-10-31T09:50:13;8.55;;;3.50;;
69847;SDS011;57143;55.940;37.496;2023-10-31T09:52:41;9.30;;;4.10;;
69847;SDS011;57143;55.940;37.496;2023-10-31T09:55:08;8.27;;;3.47;;
69847;SDS011;57143;55.940;37.496;2023-10-31T09:57:36;8.23;;;4.75;;
69847;SDS011;57143;55.940;37.496;2023-10-31T10:00:04;8.57;;;3.90;;
69847;SDS011;57143;55.940;37.496;2023-10-31T10:02:32;8.30;;;3.63;;
69847;SDS011;57143;55.940;37.496;2023-10-31T10:04:59;7.03;;;3.70;;
69847;SDS011;57143;55.940;37.496;2023-10-31T10:07:29;8.27;;;3.38;;
69847;SDS011;57143;55.940;37.496;2023-10-31T10:09:56;7.07;;;3.38;;
69847;SDS011;57143;55.940;37.496;2023-10-31T10:12:25;7.97;;;3.73;;
69847;SDS011;57143;55.940;37.496;2023-10-31T10:14:53;10.13;;;3.90;;
69847;SDS011;57143;55.940;37.496;2023-10-31T10:17:21;8.30;;;4.15;;
69847;SDS011;57143;55.940;37.496;2023-10-31T10:19:53;9.90;;;4.53;;
69847;SDS011;57143;55.940;37.496;2023-10-31T10:22:37;9.80;;;3.85;;
69847;SDS011;57143;55.940;37.496;2023-10-31T10:25:06;10.67;;;4.30;;
69847;SDS011;57143;55.940;37.496;2023-10-31T10:27:33;8.93;;;4.50;;
69847;SDS011;57143;55.940;37.496;2023-10-31T10:30:01;8.60;;;4.07;;
69847;SDS011;57143;55.940;37.496;2023-10-31T10:32:31;10.07;;;4.28;;
69847;SDS011;57143;55.940;37.496;2023-10-31T10:34:58;9.35;;;4.18;;
69847;SDS011;57143;55.940;37.496;2023-10-31T10:37:25;8.10;;;3.83;;
69847;SDS011;57143;55.940;37.496;2023-10-31T10:39:57;9.60;;;3.72;;
69847;SDS011;57143;55.940;37.496;2023-10-31T10:42:31;8.80;;;4.63;;
69847;SDS011;57143;55.940;37.496;2023-10-31T10:45:01;7.78;;;3.85;;
69847;SDS011;57143;55.940;37.496;2023-10-31T10:47:32;7.53;;;3.63;;
69847;SDS011;57143;55.940;37.496;2023-10-31T10:50:03;7.57;;;3.50;;
69847;SDS011;57143;55.940;37.496;2023-10-31T10:52:35;9.40;;;4.10;;
69847;SDS011;57143;55.940;37.496;2023-10-31T10:55:16;8.45;;;3.60;;
69847;SDS011;57143;55.940;37.496;2023-10-31T10:57:48;8.68;;;4.00;;
69847;SDS011;57143;55.940;37.496;2023-10-31T11:00:22;8.75;;;4.22;;
69847;SDS011;57143;55.940;37.496;2023-10-31T11:02:51;9.93;;;4.57;;
69847;SDS011;57143;55.940;37.496;2023-10-31T11:05:20;12.35;;;4.15;;
69847;SDS011;57143;55.940;37.496;2023-10-31T11:07:47;9.15;;;4.15;;
69847;SDS011;57143;55.940;37.496;2023-10-31T11:10:16;10.75;;;4.25;;
69847;SDS011;57143;55.940;37.496;2023-10-31T11:12:45;10.35;;;4.80;;
69847;SDS011;57143;55.940;37.496;2023-10-31T11:15:14;9.57;;;4.17;;
69847;SDS011;57143;55.940;37.496;2023-10-31T11:17:42;14.20;;;4.55;;
69847;SDS011;57143;55.940;37.496;2023-10-31T11:20:12;9.43;;;4.03;;
69847;SDS011;57143;55.940;37.496;2023-10-31T11:22:41;9.23;;;4.00;;
69847;SDS011;57143;55.940;37.496;2023-10-31T11:25:11;9.18;;;4.22;;
69847;SDS011;57143;55.940;37.496;2023-10-31T11:27:41;10.20;;;4.50;;
69847;SDS011;57143;55.940;37.496;2023-10-31T11:30:10;10.15;;;4.20;;
69847;SDS011;57143;55.940;37.496;2023-10-31T11:32:47;8.57;;;4.22;;
69847;SDS011;57143;55.940;37.496;2023-10-31T11:35:16;11.45;;;3.97;;
69847;SDS011;57143;55.940;37.496;2023-10-31T11:37:44;8.95;;;4.38;;
69847;SDS011;57143;55.940;37.496;2023-10-31T11:40:15;9.60;;;4.30;;
69847;SDS011;57143;55.940;37.496;2023-10-31T11:42:48;9.93;;;4.25;;
69847;SDS011;57143;55.940;37.496;2023-10-31T11:45:26;9.60;;;4.10;;
69847;SDS011;57143;55.940;37.496;2023-10-31T11:47:56;8.00;;;3.80;;
69847;SDS011;57143;55.940;37.496;2023-10-31T11:50:24;8.95;;;3.75;;
69847;SDS011;57143;55.940;37.496;2023-10-31T11:53:04;9.47;;;3.87;;
69847;SDS011;57143;55.940;37.496;2023-10-31T11:55:33;9.55;;;3.95;;
69847;SDS011;57143;55.940;37.496;2023-10-31T11:58:16;9.20;;;4.00;;
69847;SDS011;57143;55.940;37.496;2023-10-31T12:00:45;9.40;;;3.92;;
69847;SDS011;57143;55.940;37.496;2023-10-31T12:03:15;8.77;;;4.13;;
69847;SDS011;57143;55.940;37.496;2023-10-31T12:05:52;8.03;;;3.80;;
69847;SDS011;57143;55.940;37.496;2023-10-31T12:08:24;9.23;;;3.67;;
69847;SDS011;57143;55.940;37.496;2023-10-31T12:10:53;9.77;;;3.75;;
69847;SDS011;57143;55.940;37.496;2023-10-31T12:13:30;8.10;;;3.50;;
69847;SDS011;57143;55.940;37.496;2023-10-31T12:16:00;10.65;;;3.92;;
69847;SDS011;57143;55.940;37.496;2023-10-31T12:18:28;8.93;;;3.97;;
69847;SDS011;57143;55.940;37.496;2023-10-31T12:20:55;7.95;;;4.00;;
69847;SDS011;57143;55.940;37.496;2023-10-31T12:23:23;8.80;;;3.95;;
69847;SDS011;57143;55.940;37.496;2023-10-31T12:25:50;10.32;;;4.18;;
69847;SDS011;57143;55.940;37.496;2023-10-31T12:28:18;9.10;;;3.97;;
69847;SDS011;57143;55.940;37.496;2023-10-31T12:30:47;6.97;;;3.50;;
69847;SDS011;57143;55.940;37.496;2023-10-31T12:33:15;9.07;;;3.80;;
69847;SDS011;57143;55.940;37.496;2023-10-31T12:35:43;9.15;;;5.05;;
69847;SDS011;57143;55.940;37.496;2023-10-31T12:38:12;12.07;;;4.18;;
69847;SDS011;57143;55.940;37.496;2023-10-31T12:40:39;8.65;;;4.18;;
69847;SDS011;57143;55.940;37.496;2023-10-31T12:43:07;7.97;;;3.97;;
69847;SDS011;57143;55.940;37.496;2023-10-31T12:45:35;9.60;;;3.88;;
69847;SDS011;57143;55.940;37.496;2023-10-31T12:48:04;8.80;;;5.00;;
69847;SDS011;57143;55.940;37.496;2023-10-31T12:50:34;9.07;;;4.40;;
69847;SDS011;57143;55.940;37.496;2023-10-31T12:53:03;10.20;;;4.50;;
69847;SDS011;57143;55.940;37.496;2023-10-31T12:55:36;9.03;;;4.20;;
69847;SDS011;57143;55.940;37.496;2023-10-31T12:58:05;8.93;;;4.68;;
69847;SDS011;57143;55.940;37.496;2023-10-31T13:00:34;10.80;;;5.28;;
69847;SDS011;57143;55.940;37.496;2023-10-31T13:03:05;9.05;;;5.03;;
69847;SDS011;57143;55.940;37.496;2023-10-31T13:05:33;11.52;;;5.38;;
69847;SDS011;57143;55.940;37.496;2023-10-31T13:08:01;13.10;;;4.97;;
69847;SDS011;57143;55.940;37.496;2023-10-31T13:10:30;9.55;;;5.13;;
69847;SDS011;57143;55.940;37.496;2023-10-31T13:12:58;11.13;;;4.80;;
69847;SDS011;57143;55.940;37.496;2023-10-31T13:15:26;8.98;;;5.15;;
69847;SDS011;57143;55.940;37.496;2023-10-31T13:17:53;10.45;;;4.70;;
69847;SDS011;57143;55.940;37.496;2023-10-31T13:20:22;11.00;;;4.83;;
69847;SDS011;57143;55.940;37.496;2023-10-31T13:22:49;12.48;;;4.68;;
69847;SDS011;57143;55.940;37.496;2023-10-31T13:25:17;9.95;;;5.35;;
69847;SDS011;57143;55.940;37.496;2023-10-31T13:27:44;9.77;;;5.20;;
69847;SDS011;57143;55.940;37.496;2023-10-31T13:30:16;11.73;;;5.68;;
69847;SDS011;57143;55.940;37.496;2023-10-31T13:32:44;13.30;;;6.27;;
69847;SDS011;57143;55.940;37.496;2023-10-31T13:35:12;18.83;;;5.53;;
69847;SDS011;57143;55.940;37.496;2023-10-31T13:37:41;14.45;;;6.30;;
69847;SDS011;57143;55.940;37.496;2023-10-31T13:40:09;13.88;;;6.20;;
69847;SDS011;57143;55.940;37.496;2023-10-31T13:42:38;16.10;;;7.18;;
69847;SDS011;57143;55.940;37.496;2023-10-31T13:45:06;11.97;;;6.50;;
69847;SDS011;57143;55.940;37.496;2023-10-31T13:47:33;15.73;;;7.45;;
69847;SDS011;57143;55.940;37.496;2023-10-31T13:50:03;13.88;;;6.93;;
69847;SDS011;57143;55.940;37.496;2023-10-31T13:52:32;15.93;;;7.43;;
69847;SDS011;57143;55.940;37.496;2023-10-31T13:55:01;14.63;;;7.00;;
69847;SDS011;57143;55.940;37.496;2023-10-31T13:57:29;15.83;;;7.33;;
69847;SDS011;57143;55.940;37.496;2023-10-31T13:59:56;15.18;;;7.35;;
69847;SDS011;57143;55.940;37.496;2023-10-31T14:02:25;17.95;;;7.75;;
69847;SDS011;57143;55.940;37.496;2023-10-31T14:04:54;16.13;;;7.88;;
69847;SDS011;57143;55.940;37.496;2023-10-31T14:07:22;16.40;;;7.40;;
69847;SDS011;57143;55.940;37.496;2023-10-31T14:09:49;17.40;;;7.50;;
69847;SDS011;57143;55.940;37.496;2023-10-31T14:12:18;16.23;;;7.68;;
69847;SDS011;57143;55.940;37.496;2023-10-31T14:14:45;14.95;;;7.70;;
69847;SDS011;57143;55.940;37.496;2023-10-31T14:17:14;16.13;;;7.45;;
69847;SDS011;57143;55.940;37.496;2023-10-31T14:19:42;20.67;;;9.70;;
69847;SDS011;57143;55.940;37.496;2023-10-31T14:22:11;28.93;;;12.20;;
69847;SDS011;57143;55.940;37.496;2023-10-31T14:24:39;30.23;;;14.63;;
69847;SDS011;57143;55.940;37.496;2023-10-31T14:27:06;21.25;;;10.23;;
69847;SDS011;57143;55.940;37.496;2023-10-31T14:29:35;19.42;;;10.00;;
69847;SDS011;57143;55.940;37.496;2023-10-31T14:32:05;18.83;;;9.40;;
69847;SDS011;57143;55.940;37.496;2023-10-31T14:34:33;20.30;;;8.33;;